Time;durP1;ratioP1;P1;durP2;ratioP2;P2;SDS_P1;SDS_P2;PMS_P1;PMS_P2;Temp;Humidity;BMP_temperature;BMP_pressure;BME280_temperature;BME280_humidity;BME280_pressure;Samples;Min_cycle;Max_cycle;Signal;HPM_P1;HPM_P2
2023/01/03 00:22:49;;;;;;;;;;;;;;;;;;;;;
2023/01/03 00:25:51;;;;;;;13.90;5.40;;;8.00;1.00;;;;;;4864714;29;20560;-89
2023/01/03 00:28:55;;;;;;;8.70;5.30;;;7.90;1.00;;;;;;4849801;29;20226;-88
2023/01/03 00:31:55;;;;;;;;;;;;;;;;;;;;;
2023/01/03 00:34:44;;;;;;;6.55;5.03;;;7.80;1.00;;;;;;4864239;29;20187;-89
2023/01/03 00:37:29;;;;;;;10.82;5.88;;;7.80;1.00;;;;;;4862502;29;20200;-88
2023/01/03 00:40:06;;;;;;;11.70;5.55;;;7.70;1.00;;;;;;4919391;23;20227;-89
2023/01/03 00:49:40;;;;;;;8.35;5.00;;;7.60;1.00;;;;;;4849214;29;20588;-88
2023/01/03 00:52:31;;;;;;;9.10;4.47;;;7.50;1.00;;;;;;4854075;29;20197;-90
2023/01/03 01:04:55;;;;;;;11.90;5.57;;;7.40;1.00;;;;;;4880279;29;20258;-89
2023/01/03 01:07:47;;;;;;;8.88;5.10;;;7.40;1.00;;;;;;4852310;29;20479;-89
2023/01/03 01:11:01;;;;;;;8.60;4.88;;;7.40;1.00;;;;;;5080372;23;20243;-88
2023/01/03 01:13:46;;;;;;;10.50;5.20;;;7.30;1.00;;;;;;4826019;29;20193;-88
2023/01/03 01:16:37;;;;;;;7.53;4.35;;;7.30;1.00;;;;;;4843889;29;20185;-88
2023/01/03 01:19:45;;;;;;;;;;;;;;;;;;;;;
2023/01/03 01:22:36;;;;;;;;;;;;;;;;;;;;;
2023/01/03 01:25:42;;;;;;;;;;;;;;;;;;;;;
2023/01/03 01:31:09;;;;;;;;;;;;;;;;;;;;;
2023/01/03 01:33:38;;;;;;;5.68;4.13;;;7.10;1.00;;;;;;4856386;29;20177;-89
2023/01/03 01:36:38;;;;;;;;;;;;;;;;;;;;;
2023/01/03 01:45:22;;;;;;;9.93;4.38;;;7.00;1.00;;;;;;4838512;29;20200;-88
2023/01/03 01:51:34;;;;;;;9.75;4.47;;;6.90;1.00;;;;;;4949038;23;20294;-89
2023/01/03 01:54:25;;;;;;;7.75;4.93;;;6.90;1.00;;;;;;4856780;29;20195;-88
2023/01/03 01:57:56;;;;;;;8.25;4.90;;;6.80;1.00;;;;;;4859852;29;20609;-88
2023/01/03 02:10:32;;;;;;;5.25;3.58;;;6.70;1.00;;;;;;4834270;29;20236;-88
2023/01/03 02:13:13;;;;;;;5.28;4.03;;;6.60;1.00;;;;;;4828998;29;20193;-89
2023/01/03 02:16:23;;;;;;;8.88;4.95;;;6.60;1.00;;;;;;4847967;29;20289;-89
2023/01/03 02:19:46;;;;;;;8.05;4.68;;;6.60;1.00;;;;;;4836510;29;20215;-88
2023/01/03 02:22:49;;;;;;;7.82;4.45;;;6.60;1.00;;;;;;4832010;29;20311;-89
2023/01/03 02:29:17;;;;;;;6.55;3.80;;;6.50;1.00;;;;;;4825986;29;20189;-89
2023/01/03 02:32:21;;;;;;;13.70;5.00;;;6.50;1.00;;;;;;4822930;29;20284;-87
2023/01/03 02:35:05;;;;;;;12.82;5.15;;;6.50;1.00;;;;;;4821209;29;20207;-88
2023/01/03 02:37:33;;;;;;;7.43;4.25;;;6.50;1.00;;;;;;4834541;29;20686;-89
2023/01/03 02:40:41;;;;;;;8.90;5.03;;;6.40;1.00;;;;;;4845265;29;20619;-89
2023/01/03 02:43:14;;;;;;;14.13;4.70;;;6.40;1.00;;;;;;4831386;29;20193;-88
2023/01/03 02:46:00;;;;;;;13.45;5.75;;;6.40;1.00;;;;;;4842567;29;20192;-88
2023/01/03 02:49:13;;;;;;;10.93;5.80;;;6.40;1.00;;;;;;4839416;29;20569;-89
2023/01/03 02:55:18;;;;;;;8.70;4.30;;;6.40;1.00;;;;;;4851635;29;20201;-88
2023/01/03 02:58:18;;;;;;;;;;;;;;;;;;;;;
2023/01/03 03:00:58;;;;;;;13.43;5.45;;;6.40;1.00;;;;;;4878551;23;20247;-88
2023/01/03 03:03:58;;;;;;;;;;;;;;;;;;;;;
2023/01/03 03:06:53;;;;;;;14.07;5.22;;;6.40;1.00;;;;;;4859479;29;20202;-88
2023/01/03 03:09:25;;;;;;;9.82;5.15;;;6.40;1.00;;;;;;4853556;29;20249;-88
2023/01/03 03:15:01;;;;;;;8.50;4.85;;;6.40;1.00;;;;;;4851050;29;20220;-88
2023/01/03 03:17:53;;;;;;;7.32;4.97;;;6.40;1.00;;;;;;4843242;29;20181;-88
2023/01/03 03:26:29;;;;;;;8.75;6.10;;;6.40;1.00;;;;;;4856315;29;20187;-88
2023/01/03 03:29:07;;;;;;;9.55;6.35;;;6.40;1.00;;;;;;4848720;29;20212;-89
2023/01/03 03:31:49;;;;;;;9.55;6.15;;;6.40;1.00;;;;;;4852013;29;20213;-88
2023/01/03 03:34:29;;;;;;;9.85;6.88;;;6.40;1.00;;;;;;4851097;29;20258;-88
2023/01/03 03:37:15;;;;;;;12.13;6.43;;;6.30;1.00;;;;;;4857605;29;20599;-89
2023/01/03 03:45:38;;;;;;;11.63;5.70;;;6.20;1.00;;;;;;4866845;29;20206;-88
2023/01/03 03:48:18;;;;;;;11.93;6.20;;;6.20;1.00;;;;;;4840605;29;20180;-88
2023/01/03 03:51:00;;;;;;;10.73;6.20;;;6.20;1.00;;;;;;4858107;29;20219;-88
2023/01/03 03:53:31;;;;;;;10.25;6.30;;;6.20;1.00;;;;;;4845711;29;20201;-88
2023/01/03 03:56:07;;;;;;;14.35;6.05;;;6.10;1.00;;;;;;4839846;29;20249;-88
2023/01/03 03:58:39;;;;;;;11.05;5.95;;;6.20;1.00;;;;;;4845937;29;20192;-88
2023/01/03 04:01:06;;;;;;;7.93;6.38;;;6.20;1.00;;;;;;4848441;29;20825;-88
2023/01/03 04:03:41;;;;;;;14.82;5.93;;;6.20;1.00;;;;;;4843112;29;20193;-87
2023/01/03 04:06:20;;;;;;;9.75;5.57;;;6.30;1.00;;;;;;4849492;29;20200;-89
2023/01/03 04:08:46;;;;;;;10.75;6.32;;;6.30;1.00;;;;;;4849362;29;20188;-88
2023/01/03 04:11:11;;;;;;;11.00;6.17;;;6.40;1.00;;;;;;4848637;29;20680;-89
2023/01/03 04:13:38;;;;;;;9.47;5.70;;;6.40;1.00;;;;;;4836367;29;20464;-88
2023/01/03 04:16:05;;;;;;;8.10;5.85;;;6.40;1.00;;;;;;4846983;29;20450;-89
2023/01/03 04:18:31;;;;;;;12.98;5.85;;;6.40;1.00;;;;;;4844862;29;20193;-88
2023/01/03 04:20:57;;;;;;;10.10;5.87;;;6.40;1.00;;;;;;4851683;29;20226;-88
2023/01/03 04:23:28;;;;;;;7.87;5.67;;;6.30;1.00;;;;;;4842891;29;20588;-88
2023/01/03 04:25:53;;;;;;;15.45;6.13;;;6.30;1.00;;;;;;4842174;29;20460;-88
2023/01/03 04:28:19;;;;;;;8.70;6.10;;;6.30;1.00;;;;;;4846809;29;20185;-89
2023/01/03 04:30:46;;;;;;;9.80;6.30;;;6.30;1.00;;;;;;4857534;29;20200;-88
2023/01/03 04:33:11;;;;;;;6.38;5.35;;;6.20;1.00;;;;;;4843124;29;20276;-88
2023/01/03 04:35:37;;;;;;;13.30;6.30;;;6.20;1.00;;;;;;4846574;29;20275;-89
2023/01/03 04:38:08;;;;;;;14.75;6.18;;;6.20;1.00;;;;;;4859936;29;20192;-88
2023/01/03 04:40:37;;;;;;;11.75;5.95;;;6.20;1.00;;;;;;4844477;29;20591;-88
2023/01/03 04:45:59;;;;;;;9.30;6.47;;;6.10;1.00;;;;;;4851193;29;20187;-88
2023/01/03 04:48:25;;;;;;;15.07;6.65;;;6.10;1.00;;;;;;4843648;29;20192;-88
2023/01/03 04:50:59;;;;;;;11.87;6.87;;;6.10;1.00;;;;;;4852416;23;20239;-88
2023/01/03 04:53:48;;;;;;;14.70;7.05;;;6.00;1.00;;;;;;4846478;29;20203;-89
2023/01/03 04:56:13;;;;;;;10.90;5.55;;;6.00;1.00;;;;;;4840597;29;21417;-88
2023/01/03 04:58:39;;;;;;;10.43;5.43;;;6.00;1.00;;;;;;4845109;29;20205;-88
2023/01/03 05:01:08;;;;;;;9.00;5.57;;;6.00;1.00;;;;;;4845949;29;20215;-88
2023/01/03 05:03:36;;;;;;;7.15;5.50;;;5.90;1.00;;;;;;4851474;29;20249;-88
2023/01/03 05:06:10;;;;;;;10.65;6.07;;;5.90;1.00;;;;;;4846693;29;20184;-88
2023/01/03 05:08:37;;;;;;;17.35;6.25;;;6.00;1.00;;;;;;4838660;29;20192;-88
2023/01/03 05:11:03;;;;;;;7.25;5.22;;;5.90;1.00;;;;;;4861814;29;20219;-88
2023/01/03 05:13:34;;;;;;;10.10;5.15;;;6.00;1.00;;;;;;4846917;29;20213;-88
2023/01/03 05:16:08;;;;;;;9.55;6.75;;;6.00;1.00;;;;;;4855785;29;20196;-88
2023/01/03 05:18:34;;;;;;;12.40;5.32;;;6.00;1.00;;;;;;4840442;29;20241;-87
2023/01/03 05:26:43;;;;;;;10.02;5.30;;;6.00;1.00;;;;;;4850053;29;20723;-89
2023/01/03 05:29:10;;;;;;;8.45;6.03;;;6.00;1.00;;;;;;4837392;29;20285;-88
2023/01/03 05:31:36;;;;;;;9.60;6.15;;;6.00;1.00;;;;;;4838906;29;20600;-88
2023/01/03 05:34:11;;;;;;;13.83;8.00;;;6.00;1.00;;;;;;4838330;29;20275;-88
2023/01/03 05:36:53;;;;;;;20.23;12.55;;;6.00;1.00;;;;;;4847405;29;20555;-88
2023/01/03 05:39:21;;;;;;;54.40;25.20;;;6.00;1.00;;;;;;4841715;29;20217;-88
2023/01/03 05:41:59;;;;;;;63.17;29.55;;;6.00;1.00;;;;;;4838446;29;20209;-87
2023/01/03 05:44:25;;;;;;;65.57;42.97;;;6.00;1.00;;;;;;4843039;29;20193;-87
2023/01/03 05:46:51;;;;;;;293.85;145.95;;;6.00;1.00;;;;;;4843100;29;20650;-88
2023/01/03 05:49:17;;;;;;;202.97;122.20;;;6.00;1.00;;;;;;4837416;29;20308;-88
2023/01/03 05:51:43;;;;;;;36.87;23.70;;;6.00;1.00;;;;;;4845173;29;20189;-87
2023/01/03 05:54:14;;;;;;;15.87;10.93;;;6.00;1.00;;;;;;4846341;29;20185;-88
2023/01/03 05:56:39;;;;;;;23.50;11.73;;;6.00;1.00;;;;;;4834195;29;20287;-87
2023/01/03 05:59:23;;;;;;;156.90;86.43;;;6.00;1.00;;;;;;4849055;29;20243;-87
2023/01/03 06:01:49;;;;;;;324.13;140.00;;;6.00;1.00;;;;;;4847852;29;20209;-87
2023/01/03 06:04:15;;;;;;;21.47;14.43;;;6.10;1.00;;;;;;4843277;29;20195;-88
2023/01/03 06:06:40;;;;;;;12.57;8.13;;;6.10;1.00;;;;;;4847635;29;20541;-88
2023/01/03 06:09:12;;;;;;;13.90;6.90;;;6.20;1.00;;;;;;4845082;29;20200;-87
2023/01/03 06:11:40;;;;;;;9.18;6.38;;;6.20;1.00;;;;;;4852608;29;20197;-88
2023/01/03 06:14:06;;;;;;;22.10;17.50;;;6.30;1.00;;;;;;4839641;29;20720;-88
2023/01/03 06:19:16;;;;;;;10.68;6.65;;;6.40;1.00;;;;;;4835358;29;20468;-88
2023/01/03 06:21:41;;;;;;;6.90;5.27;;;6.40;1.00;;;;;;4851401;29;20212;-88
2023/01/03 06:24:07;;;;;;;10.77;5.50;;;6.40;1.00;;;;;;4844651;29;20185;-88
2023/01/03 06:26:33;;;;;;;18.13;5.93;;;6.40;1.00;;;;;;4842713;29;20616;-88
2023/01/03 06:28:59;;;;;;;17.90;9.10;;;6.50;1.00;;;;;;4844088;29;20640;-87
2023/01/03 06:31:24;;;;;;;28.10;13.10;;;6.50;1.00;;;;;;4840347;29;20458;-89
2023/01/03 06:33:50;;;;;;;43.70;15.87;;;6.50;1.00;;;;;;4851121;29;20197;-88
2023/01/03 06:36:18;;;;;;;18.73;11.73;;;6.60;1.00;;;;;;4836215;29;20193;-88
2023/01/03 06:38:44;;;;;;;15.43;7.65;;;6.60;1.00;;;;;;4860068;29;20194;-88
2023/01/03 06:41:11;;;;;;;10.20;6.97;;;6.70;1.00;;;;;;4852775;29;20221;-88
2023/01/03 06:43:36;;;;;;;12.32;5.63;;;6.70;1.00;;;;;;4840085;29;20178;-88
2023/01/03 06:54:47;;;;;;;11.10;6.25;;;6.70;1.00;;;;;;4842904;29;20246;-88
2023/01/03 06:57:12;;;;;;;14.07;5.22;;;6.70;1.00;;;;;;4832979;29;20654;-88
2023/01/03 06:59:49;;;;;;;12.47;5.90;;;6.60;1.00;;;;;;4835104;29;20193;-87
2023/01/03 07:02:42;;;;;;;13.30;8.10;;;6.60;1.00;;;;;;4834214;29;20232;-88
2023/01/03 07:05:23;;;;;;;13.20;6.95;;;6.50;1.00;;;;;;4839796;29;20180;-88
2023/01/03 07:07:57;;;;;;;21.13;9.27;;;6.50;1.00;;;;;;4832089;29;20185;-88
2023/01/03 07:16:27;;;;;;;44.70;29.50;;;6.50;1.00;;;;;;4835305;29;20250;-88
2023/01/03 07:18:53;;;;;;;51.55;37.63;;;6.60;1.00;;;;;;4865528;29;20705;-88
2023/01/03 07:21:28;;;;;;;14.70;8.05;;;6.60;1.00;;;;;;4862173;29;20237;-87
2023/01/03 07:23:58;;;;;;;15.43;14.07;;;6.60;1.00;;;;;;4842271;29;20296;-88
2023/01/03 07:29:21;;;;;;;12.52;7.15;;;6.70;1.00;;;;;;4833685;29;20220;-88
2023/01/03 07:32:30;;;;;;;9.32;6.50;;;6.70;1.00;;;;;;4832240;29;20658;-88
2023/01/03 07:34:55;;;;;;;12.95;7.13;;;6.70;1.00;;;;;;4833235;29;20257;-87
2023/01/03 07:37:21;;;;;;;9.60;5.63;;;6.80;1.00;;;;;;4841433;29;20275;-86
2023/01/03 07:39:52;;;;;;;9.83;4.93;;;6.90;1.00;;;;;;4834196;29;20209;-86
2023/01/03 07:45:35;;;;;;;;;;;;;;;;;;;;;
2023/01/03 07:48:01;;;;;;;7.65;3.65;;;7.20;1.00;;;;;;4823264;29;20225;-86
2023/01/03 07:50:27;;;;;;;11.10;6.00;;;7.20;1.00;;;;;;4823837;29;20292;-85
2023/01/03 07:52:52;;;;;;;5.73;4.50;;;7.30;1.00;;;;;;4841520;29;20212;-86
2023/01/03 07:55:18;;;;;;;5.73;4.10;;;7.30;1.00;;;;;;4849668;29;20553;-86
2023/01/03 07:57:43;;;;;;;10.50;7.83;;;7.40;1.00;;;;;;4842070;29;20199;-86
2023/01/03 08:00:09;;;;;;;9.90;6.00;;;7.40;1.00;;;;;;4841474;29;20285;-85
2023/01/03 08:02:35;;;;;;;7.70;4.70;;;7.50;1.00;;;;;;4841591;29;20224;-86
2023/01/03 08:05:00;;;;;;;6.93;4.00;;;7.60;1.00;;;;;;4843222;29;20224;-87
2023/01/03 08:07:26;;;;;;;4.80;3.57;;;7.60;1.00;;;;;;4846478;29;20212;-86
2023/01/03 08:15:19;;;;;;;7.20;3.83;;;7.80;1.00;;;;;;4835806;29;20250;-87
2023/01/03 08:17:45;;;;;;;11.40;4.87;;;8.00;1.00;;;;;;4845970;29;20196;-86
2023/01/03 08:20:10;;;;;;;5.17;3.60;;;8.20;99.90;;;;;;4847385;29;20253;-86
2023/01/03 08:22:36;;;;;;;5.00;3.80;;;8.30;99.90;;;;;;4840671;29;20329;-84
2023/01/03 08:25:01;;;;;;;4.83;3.77;;;8.40;99.90;;;;;;4841152;29;20224;-83
2023/01/03 08:27:27;;;;;;;7.90;3.70;;;8.60;99.90;;;;;;4837090;29;20210;-84
2023/01/03 08:29:52;;;;;;;6.30;3.97;;;9.20;99.90;;;;;;4839096;29;20220;-84
2023/01/03 08:32:20;;;;;;;7.53;3.53;;;10.00;99.90;;;;;;4843207;29;20598;-84
2023/01/03 08:34:47;;;;;;;6.77;3.63;;;11.20;99.90;;;;;;4852150;29;20196;-85
2023/01/03 08:37:14;;;;;;;5.20;2.90;;;11.90;1.00;;;;;;4849475;29;20457;-84
2023/01/03 08:39:53;;;;;;;5.23;3.20;;;11.60;1.00;;;;;;4841737;29;21117;-84
2023/01/03 08:42:22;;;;;;;6.23;3.40;;;11.20;1.00;;;;;;4844459;29;20587;-84
2023/01/03 08:44:49;;;;;;;7.00;3.50;;;10.70;1.00;;;;;;4852435;29;20444;-84
2023/01/03 08:47:15;;;;;;;4.80;3.13;;;10.50;1.00;;;;;;4835379;29;20545;-84
2023/01/03 08:49:41;;;;;;;6.93;3.00;;;10.40;99.90;;;;;;4839232;29;20508;-84
2023/01/03 08:52:07;;;;;;;4.73;3.60;;;10.30;99.90;;;;;;4849949;29;20462;-84
2023/01/03 08:54:32;;;;;;;5.10;2.83;;;10.20;59.60;;;;;;4832332;29;20454;-85
2023/01/03 08:56:58;;;;;;;6.70;3.30;;;10.00;99.90;;;;;;4844143;29;20272;-83
2023/01/03 08:59:26;;;;;;;4.70;3.07;;;9.70;1.00;;;;;;4845761;29;20224;-84
2023/01/03 09:02:16;;;;;;;6.70;3.60;;;9.50;99.90;;;;;;4845298;29;20221;-84
2023/01/03 09:04:57;;;;;;;11.30;3.30;;;9.30;1.00;;;;;;4840378;29;20448;-84
2023/01/03 09:07:50;;;;;;;6.57;4.53;;;9.30;99.90;;;;;;4853101;29;20453;-84
2023/01/03 09:10:27;;;;;;;6.00;2.70;;;9.10;99.90;;;;;;4850125;29;20491;-84
2023/01/03 09:12:58;;;;;;;7.50;3.40;;;9.00;1.00;;;;;;4848634;29;20452;-85
2023/01/03 09:15:34;;;;;;;13.93;3.77;;;8.90;99.90;;;;;;4850166;29;20452;-85
2023/01/03 09:18:16;;;;;;;;;;;;;;;;;;;;;
2023/01/03 09:20:53;;;;;;;4.93;3.13;;;8.80;1.00;;;;;;4839135;29;20648;-85
2023/01/03 09:34:24;;;;;;;;;;;;;;;;;;;;;
2023/01/03 09:37:30;;;;;;;4.53;2.90;;;10.10;95.60;;;;;;4839342;29;20444;-85
2023/01/03 09:45:27;;;;;;;3.37;2.37;;;10.70;1.00;;;;;;4867277;29;20452;-85
2023/01/03 09:47:56;;;;;;;5.80;2.10;;;11.20;99.90;;;;;;4864208;29;20469;-85
2023/01/03 09:50:25;;;;;;;9.80;2.43;;;11.40;1.00;;;;;;4864080;29;20476;-86
2023/01/03 10:05:28;;;;;;;13.03;2.10;;;11.30;96.50;;;;;;4867342;29;20497;-85
2023/01/03 10:08:23;;;;;;;3.47;1.60;;;11.20;1.00;;;;;;4858871;29;20511;-85
2023/01/03 10:11:25;;;;;;;5.43;1.93;;;11.20;93.90;;;;;;4879218;29;20472;-85
2023/01/03 10:14:00;;;;;;;4.80;1.90;;;11.20;1.00;;;;;;4863806;29;20467;-85
2023/01/03 10:16:36;;;;;;;2.63;1.70;;;11.10;99.90;;;;;;4860231;29;20451;-86
2023/01/03 10:19:43;;;;;;;3.20;1.50;;;11.10;99.90;;;;;;4866869;29;20546;-86
2023/01/03 10:22:15;;;;;;;4.70;2.00;;;11.20;10.70;;;;;;4861244;29;20476;-85
2023/01/03 10:24:55;;;;;;;6.00;2.40;;;11.30;99.90;;;;;;4872784;29;20440;-86
2023/01/03 10:27:24;;;;;;;2.40;1.40;;;11.70;1.00;;;;;;4871596;29;20442;-86
2023/01/03 10:29:58;;;;;;;3.63;1.77;;;12.00;99.90;;;;;;4865814;29;20465;-85
2023/01/03 10:32:52;;;;;;;2.80;1.40;;;12.20;1.00;;;;;;4872987;29;20813;-87
2023/01/03 10:35:28;;;;;;;5.23;1.77;;;12.10;99.90;;;;;;4871984;29;20856;-86
2023/01/03 10:37:56;;;;;;;3.40;1.60;;;12.00;99.90;;;;;;4872400;29;20453;-86
2023/01/03 10:40:35;;;;;;;4.70;1.60;;;11.90;99.90;;;;;;4876913;29;20465;-85
2023/01/03 10:43:31;;;;;;;2.70;1.30;;;11.80;99.90;;;;;;4869855;29;20448;-86
2023/01/03 10:46:03;;;;;;;3.53;1.80;;;11.60;99.90;;;;;;4859431;29;20501;-86
2023/01/03 10:48:39;;;;;;;7.40;1.30;;;11.60;1.00;;;;;;4876777;29;20437;-86
2023/01/03 10:51:22;;;;;;;4.33;1.80;;;11.50;1.00;;;;;;4866835;29;20500;-87
2023/01/03 10:53:50;;;;;;;4.60;1.77;;;11.40;1.00;;;;;;4871118;29;20440;-86
2023/01/03 10:56:17;;;;;;;5.33;1.93;;;11.40;1.00;;;;;;4873346;29;20461;-87
2023/01/03 10:58:42;;;;;;;3.90;1.43;;;11.30;1.00;;;;;;4871280;29;20439;-86
2023/01/03 11:01:18;;;;;;;2.80;1.40;;;11.30;1.00;;;;;;4868582;29;20483;-85
2023/01/03 11:03:44;;;;;;;4.13;2.00;;;11.30;1.00;;;;;;4856572;29;20189;-83
2023/01/03 11:06:15;;;;;;;8.77;2.17;;;11.20;1.00;;;;;;4867217;29;20451;-83
2023/01/03 11:08:57;;;;;;;3.03;1.70;;;11.20;1.00;;;;;;4852372;29;20253;-85
2023/01/03 11:11:32;;;;;;;7.23;1.60;;;11.10;1.00;;;;;;4868324;29;20476;-84
2023/01/03 11:14:15;;;;;;;8.50;2.13;;;11.20;1.00;;;;;;4860132;29;20442;-84
2023/01/03 11:16:40;;;;;;;4.10;1.23;;;11.20;1.00;;;;;;4871359;29;20506;-84
2023/01/03 11:19:15;;;;;;;6.57;1.40;;;11.40;1.00;;;;;;4867918;29;20485;-84
2023/01/03 11:21:51;;;;;;;6.53;1.60;;;11.60;1.00;;;;;;4866319;29;20528;-83
2023/01/03 11:24:45;;;;;;;6.27;1.73;;;11.80;99.90;;;;;;4855604;29;20445;-84
2023/01/03 11:27:30;;;;;;;4.70;1.50;;;11.90;99.90;;;;;;4855187;29;20499;-85
2023/01/03 11:29:59;;;;;;;5.00;1.70;;;12.00;1.00;;;;;;4859445;29;20495;-85
2023/01/03 11:32:45;;;;;;;2.60;1.37;;;12.00;1.00;;;;;;4872806;29;20985;-85
2023/01/03 11:35:13;;;;;;;6.43;1.70;;;12.10;1.00;;;;;;4865170;29;20460;-85
2023/01/03 11:37:57;;;;;;;6.27;2.07;;;12.20;1.00;;;;;;4858143;29;20933;-85
2023/01/03 11:40:40;;;;;;;3.40;1.60;;;12.30;1.00;;;;;;4860368;29;20552;-85
2023/01/03 11:43:30;;;;;;;3.93;1.37;;;12.30;99.90;;;;;;4859246;29;20453;-84
2023/01/03 11:46:23;;;;;;;2.83;1.30;;;12.40;99.90;;;;;;4854818;29;20464;-85
2023/01/03 11:48:57;;;;;;;4.80;1.10;;;12.50;99.90;;;;;;4863949;29;20926;-85
2023/01/03 11:51:29;;;;;;;5.10;1.13;;;12.70;99.90;;;;;;4858774;29;20437;-85
2023/01/03 11:54:22;;;;;;;4.50;1.17;;;12.90;99.90;;;;;;4862259;29;20961;-85
2023/01/03 11:56:49;;;;;;;5.47;1.30;;;13.10;99.70;;;;;;4851218;29;20448;-85
2023/01/03 11:59:46;;;;;;;4.47;1.00;;;13.80;1.00;;;;;;4852710;29;20551;-85
2023/01/03 12:02:49;;;;;;;1.47;1.10;;;14.40;1.00;;;;;;4874284;29;20484;-86
2023/01/03 12:05:44;;;;;;;4.90;1.00;;;14.80;1.00;;;;;;4858442;29;20460;-85
2023/01/03 12:08:31;;;;;;;3.27;1.27;;;14.90;1.00;;;;;;4859591;29;20450;-85
2023/01/03 12:11:14;;;;;;;1.70;0.90;;;14.90;99.90;;;;;;4850537;29;20431;-85
2023/01/03 12:13:49;;;;;;;1.90;0.87;;;15.10;99.90;;;;;;4853129;29;20959;-85
2023/01/03 12:16:38;;;;;;;6.17;1.03;;;15.70;99.90;;;;;;4856519;29;20452;-85
2023/01/03 12:19:19;;;;;;;5.93;0.80;;;15.80;99.90;;;;;;4863412;29;20500;-85
2023/01/03 12:21:59;;;;;;;3.23;1.00;;;16.50;99.90;;;;;;4853219;29;20492;-85
2023/01/03 12:24:40;;;;;;;3.53;0.93;;;16.50;99.90;;;;;;4860054;29;20452;-84
2023/01/03 12:27:29;;;;;;;3.60;1.27;;;16.00;99.90;;;;;;4846361;29;20599;-85
2023/01/03 12:30:06;;;;;;;2.60;1.20;;;15.50;99.90;;;;;;4851510;29;20457;-85
2023/01/03 12:32:49;;;;;;;5.23;1.27;;;15.10;99.90;;;;;;4862401;29;20926;-84
2023/01/03 12:35:36;;;;;;;1.83;1.00;;;14.50;99.90;;;;;;4854270;29;20915;-85
2023/01/03 12:38:05;;;;;;;2.27;0.90;;;14.10;99.90;;;;;;4853536;29;20441;-85
2023/01/03 12:40:48;;;;;;;2.50;1.30;;;14.20;99.90;;;;;;4846899;29;20468;-85
2023/01/03 12:43:23;;;;;;;4.40;1.10;;;14.10;99.90;;;;;;4861242;29;20435;-85
2023/01/03 12:45:57;;;;;;;1.63;1.03;;;14.00;99.90;;;;;;4867216;29;20465;-85
2023/01/03 12:48:57;;;;;;;1.70;1.03;;;14.00;99.90;;;;;;4850398;29;20543;-84
2023/01/03 12:51:30;;;;;;;3.47;0.87;;;14.00;99.90;;;;;;4858506;29;20448;-85
2023/01/03 12:54:27;;;;;;;1.97;0.90;;;13.90;99.90;;;;;;4865674;29;20491;-85
2023/01/03 12:57:17;;;;;;;1.87;0.77;;;13.70;99.90;;;;;;4855313;29;20422;-84
2023/01/03 13:00:05;;;;;;;2.73;0.90;;;13.50;99.90;;;;;;4853419;29;20480;-84
2023/01/03 13:03:04;;;;;;;3.17;0.83;;;13.30;99.90;;;;;;4868634;29;20519;-85
2023/01/03 13:05:46;;;;;;;2.40;0.97;;;13.10;99.90;;;;;;4855404;29;20457;-84
2023/01/03 13:08:30;;;;;;;1.73;1.00;;;12.90;99.90;;;;;;4882537;29;20440;-84
2023/01/03 13:11:02;;;;;;;2.93;0.80;;;12.80;99.90;;;;;;4857375;29;20464;-85
2023/01/03 13:13:28;;;;;;;2.20;0.90;;;12.70;99.90;;;;;;4864128;29;20448;-85
2023/01/03 13:15:54;;;;;;;2.03;1.23;;;12.80;99.90;;;;;;4858556;29;20959;-85
2023/01/03 13:18:22;;;;;;;2.30;1.17;;;12.70;99.90;;;;;;4857767;29;20438;-84
2023/01/03 13:20:49;;;;;;;2.93;1.33;;;12.70;99.90;;;;;;4871535;29;20212;-85
2023/01/03 13:23:52;;;;;;;2.00;0.90;;;13.30;99.90;;;;;;4867140;29;21035;-86
2023/01/03 13:26:24;;;;;;;2.87;1.10;;;14.50;99.90;;;;;;4853540;29;20840;-85
2023/01/03 13:29:08;;;;;;;1.83;1.00;;;15.20;99.90;;;;;;4858573;29;20995;-85
2023/01/03 13:31:37;;;;;;;2.17;1.00;;;15.10;99.90;;;;;;4868267;29;20438;-85
2023/01/03 13:34:30;;;;;;;1.23;0.80;;;15.10;99.90;;;;;;4863960;29;20552;-84
2023/01/03 13:37:05;;;;;;;1.73;0.80;;;15.60;99.90;;;;;;4859518;29;20997;-84
2023/01/03 13:39:41;;;;;;;2.03;0.97;;;16.00;99.90;;;;;;4857519;29;20465;-85
2023/01/03 13:42:29;;;;;;;1.77;1.00;;;16.30;99.90;;;;;;4860468;29;20478;-85
2023/01/03 13:45:16;;;;;;;2.53;1.00;;;16.50;99.90;;;;;;4859747;29;20846;-85
2023/01/03 13:47:49;;;;;;;1.93;1.20;;;16.70;99.90;;;;;;4859803;29;20449;-86
2023/01/03 13:50:33;;;;;;;3.77;1.10;;;16.70;99.90;;;;;;4861722;29;20496;-84
2023/01/03 13:53:22;;;;;;;1.67;0.83;;;16.50;99.90;;;;;;4859857;29;20902;-85
2023/01/03 13:56:21;;;;;;;4.63;0.93;;;15.90;99.90;;;;;;4862033;29;20512;-85
2023/01/03 13:58:53;;;;;;;8.60;4.60;;;15.50;99.90;;;;;;4857723;29;20464;-85
2023/01/03 14:01:47;;;;;;;3.03;1.53;;;15.10;99.90;;;;;;4858953;29;20473;-85
2023/01/03 14:04:34;;;;;;;2.73;1.80;;;15.10;99.90;;;;;;4868174;29;20478;-84
2023/01/03 14:07:24;;;;;;;3.60;1.60;;;15.10;99.90;;;;;;4863077;29;20444;-85
2023/01/03 14:10:27;;;;;;;1.40;0.90;;;15.10;99.90;;;;;;4853491;29;20438;-85
2023/01/03 14:13:18;;;;;;;2.63;1.33;;;15.00;99.90;;;;;;4857535;29;20514;-86
2023/01/03 14:15:48;;;;;;;2.10;1.57;;;14.70;99.90;;;;;;4858974;29;20594;-85
2023/01/03 14:18:13;;;;;;;1.53;0.97;;;14.30;99.90;;;;;;4866505;29;20439;-85
2023/01/03 14:20:45;;;;;;;1.47;1.03;;;14.00;99.90;;;;;;4867938;29;20472;-85
2023/01/03 14:23:14;;;;;;;3.33;2.80;;;13.70;99.90;;;;;;4867818;29;20217;-85
2023/01/03 14:25:42;;;;;;;4.40;1.00;;;13.50;99.90;;;;;;4866286;29;20460;-85
2023/01/03 14:28:23;;;;;;;1.77;1.20;;;13.20;99.90;;;;;;4864961;29;20452;-85
2023/01/03 14:31:04;;;;;;;2.50;0.83;;;13.00;99.90;;;;;;4872343;29;20452;-85
2023/01/03 14:33:54;;;;;;;2.43;1.27;;;12.90;99.90;;;;;;4873639;29;20396;-87
2023/01/03 14:36:20;;;;;;;1.87;1.40;;;12.80;99.90;;;;;;4860050;29;20456;-85
2023/01/03 14:38:48;;;;;;;4.70;0.90;;;13.00;99.90;;;;;;4854680;29;20674;-85
2023/01/03 14:41:26;;;;;;;4.20;1.00;;;13.30;99.90;;;;;;4858060;29;20234;-85
2023/01/03 14:44:24;;;;;;;2.80;1.07;;;13.60;99.90;;;;;;4856067;29;20460;-84
2023/01/03 14:46:53;;;;;;;3.13;0.97;;;13.80;99.90;;;;;;4847962;29;20955;-85
2023/01/03 14:49:23;;;;;;;4.07;1.10;;;13.90;99.90;;;;;;4853774;29;20475;-85
2023/01/03 14:51:50;;;;;;;3.70;0.90;;;13.80;99.90;;;;;;4860113;29;21150;-85
2023/01/03 14:54:18;;;;;;;4.50;1.37;;;13.70;99.90;;;;;;4869540;29;20475;-84
2023/01/03 14:56:45;;;;;;;2.60;1.07;;;13.70;99.90;;;;;;4872325;29;20456;-85
2023/01/03 14:59:15;;;;;;;2.80;1.23;;;13.60;99.90;;;;;;4857716;29;20465;-84
2023/01/03 15:01:41;;;;;;;2.67;1.10;;;13.50;99.90;;;;;;4868160;29;20524;-86
2023/01/03 15:04:14;;;;;;;4.90;1.27;;;13.40;99.90;;;;;;4861415;29;20452;-85
2023/01/03 15:06:59;;;;;;;3.97;1.10;;;13.20;99.90;;;;;;4864943;29;20478;-86
2023/01/03 15:09:25;;;;;;;4.00;1.20;;;12.90;99.90;;;;;;4867190;29;20463;-85
2023/01/03 15:11:58;;;;;;;2.50;1.33;;;12.60;99.90;;;;;;4868421;29;20934;-85
2023/01/03 15:14:29;;;;;;;3.33;1.17;;;12.30;99.90;;;;;;4871565;29;20520;-86
2023/01/03 15:17:10;;;;;;;2.47;1.30;;;12.00;99.90;;;;;;4858630;29;20881;-85
2023/01/03 15:19:39;;;;;;;4.93;1.53;;;11.80;99.90;;;;;;4866742;29;20472;-85
2023/01/03 15:22:21;;;;;;;3.30;1.27;;;11.70;99.90;;;;;;4863843;29;20481;-85
2023/01/03 15:24:52;;;;;;;4.50;1.50;;;11.50;99.90;;;;;;4865176;29;20436;-85
2023/01/03 15:27:37;;;;;;;8.00;1.30;;;11.30;99.90;;;;;;4861214;29;20958;-86
2023/01/03 15:30:22;;;;;;;4.30;1.30;;;11.20;99.90;;;;;;4862896;29;20471;-85
2023/01/03 15:33:02;;;;;;;3.73;1.50;;;11.00;99.90;;;;;;4869972;29;20528;-83
2023/01/03 15:35:37;;;;;;;3.80;1.50;;;10.90;1.00;;;;;;4869605;29;20492;-83
2023/01/03 15:38:11;;;;;;;7.23;2.53;;;10.80;1.00;;;;;;4860041;29;20537;-83
2023/01/03 15:40:38;;;;;;;6.10;2.77;;;10.70;1.00;;;;;;4863025;29;20534;-81
2023/01/03 15:43:23;;;;;;;6.80;1.70;;;10.70;1.00;;;;;;4869821;29;21005;-83
2023/01/03 15:46:03;;;;;;;6.20;1.83;;;10.60;1.00;;;;;;4873345;29;20483;-83
2023/01/03 15:48:33;;;;;;;4.73;1.70;;;10.50;1.00;;;;;;4864307;29;20464;-83
2023/01/03 15:51:00;;;;;;;6.47;3.37;;;10.40;1.00;;;;;;4856772;29;20470;-83
2023/01/03 15:53:29;;;;;;;7.77;3.20;;;10.40;1.00;;;;;;4867646;29;20444;-82
2023/01/03 15:56:05;;;;;;;4.17;2.07;;;10.30;1.00;;;;;;4863584;29;20437;-82
2023/01/03 15:58:33;;;;;;;7.23;2.73;;;10.30;1.00;;;;;;4875652;29;20977;-82
2023/01/03 16:00:59;;;;;;;5.23;2.90;;;10.20;1.00;;;;;;4871689;29;20497;-82
2023/01/03 16:03:30;;;;;;;11.30;2.70;;;10.20;1.00;;;;;;4865364;29;20449;-83
2023/01/03 16:05:57;;;;;;;8.33;2.43;;;10.20;1.00;;;;;;4881730;29;20455;-83
2023/01/03 16:08:51;;;;;;;7.00;1.80;;;10.10;1.00;;;;;;4874453;29;20460;-83
2023/01/03 16:11:24;;;;;;;6.83;1.50;;;10.00;1.00;;;;;;4866141;29;20456;-82
2023/01/03 16:13:53;;;;;;;6.73;2.03;;;10.00;1.00;;;;;;4860073;29;20509;-83
2023/01/03 16:16:23;;;;;;;5.87;2.27;;;10.00;1.00;;;;;;4864261;29;20445;-84
2023/01/03 16:18:49;;;;;;;8.27;2.87;;;9.90;1.00;;;;;;4874373;29;20444;-84
2023/01/03 16:21:15;;;;;;;7.13;2.73;;;9.90;1.00;;;;;;4887103;29;20477;-84
2023/01/03 16:23:41;;;;;;;7.43;3.47;;;9.90;14.40;;;;;;4872406;29;20820;-84
2023/01/03 16:26:07;;;;;;;3.60;2.37;;;9.80;25.70;;;;;;4871481;29;20433;-84
2023/01/03 16:28:33;;;;;;;7.00;2.67;;;9.80;46.40;;;;;;4865122;29;20219;-83